createdAt,value
2019-04-26T00:01:13.851Z,58.80
2019-04-26T00:03:45.447Z,58.50
2019-04-26T00:06:16.561Z,58.50
2019-04-26T00:08:50.704Z,58.40
2019-04-26T00:11:45.635Z,58.40
2019-04-26T00:14:40.127Z,58.30
2019-04-26T00:17:19.884Z,58.30
2019-04-26T00:19:49.544Z,58.40
2019-04-26T00:22:19.174Z,58.50
2019-04-26T00:24:48.587Z,58.50
2019-04-26T00:27:18.927Z,58.60
2019-04-26T00:29:48.344Z,58.70
2019-04-26T00:32:17.759Z,58.70
2019-04-26T00:34:47.035Z,58.70
2019-04-26T00:37:16.314Z,58.70
2019-04-26T00:39:45.587Z,58.60
2019-04-26T00:42:16.437Z,58.50
2019-04-26T00:44:46.122Z,58.60
2019-04-26T00:47:16.982Z,58.80
2019-04-26T00:49:46.580Z,58.90
2019-04-26T00:52:17.390Z,58.80
2019-04-26T00:54:47.216Z,58.70
2019-04-26T00:57:18.268Z,58.60
2019-04-26T00:59:49.378Z,58.70
2019-04-26T01:02:30.654Z,59.00
2019-04-26T01:04:59.898Z,59.40
2019-04-26T01:07:29.350Z,59.70
2019-04-26T01:09:58.822Z,59.90
2019-04-26T01:12:28.138Z,60.10
2019-04-26T01:14:57.394Z,60.10
2019-04-26T01:17:26.856Z,60.10
2019-04-26T01:19:57.154Z,60.20
2019-04-26T01:22:29.427Z,60.10
2019-04-26T01:25:00.346Z,60.10
2019-04-26T01:27:30.606Z,60.10
2019-04-26T01:30:03.774Z,61.10
2019-04-26T01:32:34.237Z,60.20
2019-04-26T01:35:03.514Z,60.20
2019-04-26T01:37:33.621Z,60.10
2019-04-26T01:40:07.986Z,60.10
2019-04-26T01:42:45.814Z,60.40
2019-04-26T01:45:27.825Z,60.60
2019-04-26T01:48:00.954Z,60.80
2019-04-26T01:50:33.345Z,61.00
2019-04-26T01:53:03.701Z,61.10
2019-04-26T01:55:33.993Z,61.20
2019-04-26T01:58:06.192Z,61.20
2019-04-26T02:00:54.829Z,61.10
2019-04-26T02:03:27.797Z,60.70
2019-04-26T02:05:57.226Z,60.60
2019-04-26T02:08:26.594Z,60.50
2019-04-26T02:10:55.889Z,60.70
2019-04-26T02:13:25.371Z,60.90
2019-04-26T02:15:54.713Z,61.10
2019-04-26T02:18:24.489Z,61.20
2019-04-26T02:21:13.821Z,61.50
2019-04-26T02:23:49.537Z,61.60
2019-04-26T02:26:38.919Z,61.60
2019-04-26T02:29:12.218Z,62.00
2019-04-26T02:31:44.293Z,62.30
2019-04-26T02:34:15.645Z,62.50
2019-04-26T02:36:56.918Z,62.70
2019-04-26T02:39:19.302Z,63.00
2019-04-26T02:41:50.692Z,63.20
2019-04-26T02:44:23.713Z,63.30
2019-04-26T02:47:34.191Z,63.50
2019-04-26T02:50:06.713Z,64.30
2019-04-26T02:52:45.901Z,63.30
2019-04-26T02:55:36.899Z,63.30
2019-04-26T02:58:05.125Z,63.80
2019-04-26T03:00:35.872Z,64.00
2019-04-26T03:03:08.048Z,64.20
2019-04-26T03:05:40.776Z,64.40
2019-04-26T03:08:23.022Z,64.40
2019-04-26T03:11:04.821Z,64.40
2019-04-26T03:13:46.117Z,64.40
2019-04-26T03:16:42.898Z,64.30
2019-04-26T03:19:28.228Z,64.20
2019-04-26T03:22:07.269Z,64.10
2019-04-26T03:24:45.008Z,64.20
2019-04-26T03:27:32.751Z,64.20
2019-04-26T03:30:19.309Z,64.40
2019-04-26T03:32:55.178Z,65.30
2019-04-26T03:35:57.216Z,64.60
2019-04-26T03:38:48.306Z,64.70
2019-04-26T03:41:27.149Z,64.80
2019-04-26T03:44:23.808Z,64.80
2019-04-26T03:47:01.317Z,64.90
2019-04-26T03:49:54.377Z,64.90
2019-04-26T03:53:08.440Z,64.90
2019-04-26T03:56:23.561Z,64.80
2019-04-26T03:59:42.702Z,64.80
2019-04-26T04:02:31.223Z,64.80
2019-04-26T04:05:24.566Z,64.70
2019-04-26T04:07:56.444Z,64.60
2019-04-26T04:10:30.189Z,64.50
2019-04-26T04:13:38.866Z,64.40
2019-04-26T04:16:22.819Z,64.20
2019-04-26T04:18:57.070Z,64.00
2019-04-26T04:21:48.852Z,64.30
2019-04-26T04:24:48.724Z,64.40
2019-04-26T04:27:23.476Z,64.60
2019-04-26T04:30:42.251Z,64.80
2019-04-26T04:33:43.702Z,65.00
2019-04-26T04:36:20.076Z,65.10
2019-04-26T04:39:11.282Z,65.40
2019-04-26T04:41:41.080Z,65.70
2019-04-26T04:44:33.362Z,65.80
2019-04-26T04:47:31.364Z,65.90
2019-04-26T04:50:11.359Z,65.90
2019-04-26T04:52:52.164Z,66.00
2019-04-26T04:55:47.909Z,66.00
2019-04-26T04:58:25.287Z,66.40
2019-04-26T05:01:46.922Z,66.80
2019-04-26T05:04:28.778Z,67.10
2019-04-26T05:07:26.870Z,67.20
2019-04-26T05:10:14.766Z,67.50
2019-04-26T05:13:04.434Z,67.70
2019-04-26T05:16:17.602Z,67.80
2019-04-26T05:19:28.135Z,67.90
2019-04-26T05:22:51.200Z,68.00
2019-04-26T05:26:28.505Z,68.00
2019-04-26T05:29:26.558Z,67.90
2019-04-26T05:32:25.454Z,67.90
2019-04-26T05:35:11.444Z,68.20
2019-04-26T05:37:57.311Z,68.40
2019-04-26T05:41:09.277Z,68.60
2019-04-26T05:44:03.610Z,68.80
2019-04-26T05:47:28.782Z,68.90
2019-04-26T05:50:46.445Z,69.00
2019-04-26T05:53:57.446Z,69.10
2019-04-26T05:56:40.946Z,69.20
2019-04-26T05:59:18.727Z,69.40
2019-04-26T06:02:30.649Z,69.50
2019-04-26T06:05:48.050Z,69.60
2019-04-26T06:08:41.478Z,69.40
2019-04-26T06:11:21.805Z,69.20
2019-04-26T06:14:48.257Z,69.20
2019-04-26T06:18:02.225Z,69.20
2019-04-26T06:20:57.283Z,69.00
2019-04-26T06:23:40.509Z,69.00
2019-04-26T06:26:45.808Z,68.90
2019-04-26T06:29:23.753Z,68.60
2019-04-26T06:32:04.662Z,68.10
2019-04-26T06:34:49.557Z,67.70
2019-04-26T06:37:31.349Z,67.40
2019-04-26T06:40:12.573Z,67.10
2019-04-26T06:43:06.396Z,67.70
2019-04-26T06:46:18.157Z,66.70
2019-04-26T06:49:39.617Z,66.50
2019-04-26T06:52:12.945Z,66.30
2019-04-26T06:55:04.245Z,66.10
2019-04-26T06:58:23.336Z,66.00
2019-04-26T07:01:36.528Z,65.90
2019-04-26T07:04:43.044Z,66.00
2019-04-26T07:08:11.236Z,66.00
2019-04-26T07:11:45.092Z,65.90
2019-04-26T07:14:26.284Z,65.80
2019-04-26T07:17:05.479Z,65.70
2019-04-26T07:20:30.472Z,65.80
2019-04-26T07:23:42.063Z,65.80
2019-04-26T07:26:56.716Z,65.60
2019-04-26T07:30:15.006Z,65.80
2019-04-26T07:33:51.172Z,65.20
2019-04-26T07:37:06.767Z,65.00
2019-04-26T07:40:28.832Z,64.70
2019-04-26T07:43:12.616Z,64.30
2019-04-26T07:46:02.563Z,63.80
2019-04-26T07:49:08.143Z,63.50
2019-04-26T07:52:18.960Z,63.20
2019-04-26T07:55:13.151Z,63.10
2019-04-26T07:58:09.017Z,62.90
2019-04-26T08:00:50.828Z,62.50
2019-04-26T08:03:31.851Z,62.20
2019-04-26T08:06:16.387Z,61.90
2019-04-26T08:08:51.803Z,61.50
2019-04-26T08:11:28.671Z,61.20
2019-04-26T08:14:08.562Z,61.10
2019-04-26T08:16:54.351Z,61.00
2019-04-26T08:19:26.959Z,60.80
2019-04-26T08:22:11.424Z,60.50
2019-04-26T08:24:31.963Z,60.00
2019-04-26T08:27:23.538Z,59.80
2019-04-26T08:29:58.773Z,59.60
2019-04-26T08:32:33.462Z,60.00
2019-04-26T08:35:17.233Z,59.10
2019-04-26T08:37:52.060Z,59.10
2019-04-26T08:40:30.270Z,58.90
2019-04-26T08:43:12.627Z,58.70
2019-04-26T08:46:10.087Z,58.50
2019-04-26T08:48:58.114Z,58.30
2019-04-26T08:51:29.342Z,57.80
2019-04-26T08:54:00.526Z,57.50
2019-04-26T08:56:34.282Z,57.20
2019-04-26T08:59:10.694Z,56.30
2019-04-26T09:01:49.762Z,56.10
2019-04-26T09:04:27.154Z,56.20
2019-04-26T09:07:20.550Z,56.10
2019-04-26T09:09:57.341Z,55.50
2019-04-26T09:12:26.963Z,54.80
2019-04-26T09:14:59.558Z,54.10
2019-04-26T09:17:32.224Z,53.30
2019-04-26T09:20:07.023Z,52.80
2019-04-26T09:22:52.650Z,52.50
2019-04-26T09:25:30.195Z,52.30
2019-04-26T09:28:12.312Z,52.00
2019-04-26T09:30:55.189Z,51.80
2019-04-26T09:33:38.995Z,51.70
2019-04-26T09:36:08.950Z,51.30
2019-04-26T09:38:38.286Z,50.80
2019-04-26T09:41:07.643Z,50.50
2019-04-26T09:44:01.987Z,50.10
2019-04-26T09:46:56.606Z,50.10
2019-04-26T09:49:42.549Z,50.00
2019-04-26T09:52:17.608Z,49.50
2019-04-26T09:54:46.958Z,49.30
2019-04-26T09:57:16.338Z,49.30
2019-04-26T09:59:45.641Z,49.40
2019-04-26T10:02:15.341Z,49.00
2019-04-26T10:04:44.601Z,48.40
2019-04-26T10:07:13.893Z,48.30
2019-04-26T10:09:43.161Z,47.90
2019-04-26T10:12:34.309Z,47.70
2019-04-26T10:15:28.169Z,47.50
2019-04-26T10:17:57.607Z,47.30
2019-04-26T10:20:26.914Z,47.00
2019-04-26T10:22:56.257Z,46.70
2019-04-26T10:25:25.551Z,46.40
2019-04-26T10:27:54.841Z,46.10
2019-04-26T10:30:24.189Z,45.90
2019-04-26T10:32:53.473Z,45.70
2019-04-26T10:35:23.252Z,45.70
2019-04-26T10:37:52.809Z,45.80
2019-04-26T10:40:34.705Z,45.70
2019-04-26T10:42:53.086Z,46.00
2019-04-26T10:45:22.351Z,45.10
2019-04-26T10:47:51.633Z,45.10
2019-04-26T10:50:21.357Z,44.90
2019-04-26T10:53:00.177Z,44.80
2019-04-26T10:56:06.921Z,44.80
2019-04-26T10:58:43.628Z,44.20
2019-04-26T11:01:15.068Z,43.60
2019-04-26T11:03:44.329Z,42.60
2019-04-26T11:06:13.592Z,41.40
2019-04-26T11:08:42.932Z,40.10
2019-04-26T11:11:12.177Z,39.70
2019-04-26T11:13:41.425Z,39.10
2019-04-26T11:16:10.723Z,38.50
2019-04-26T11:18:39.980Z,37.20
2019-04-26T11:21:09.344Z,36.00
2019-04-26T11:23:41.182Z,34.90
2019-04-26T11:26:09.716Z,34.00
2019-04-26T11:28:38.973Z,33.30
2019-04-26T11:31:08.364Z,32.70
2019-04-26T11:33:44.631Z,32.60
2019-04-26T11:36:08.836Z,33.20
2019-04-26T11:38:38.325Z,33.30
2019-04-26T11:41:07.713Z,33.10
2019-04-26T11:43:37.031Z,33.60
2019-04-26T11:46:06.338Z,33.80
2019-04-26T11:48:35.602Z,33.80
2019-04-26T11:51:04.909Z,33.10
2019-04-26T11:53:34.186Z,32.60
2019-04-26T11:56:04.427Z,32.60
2019-04-26T11:58:34.564Z,32.60
2019-04-26T12:01:05.496Z,32.20
2019-04-26T12:03:34.803Z,31.40
2019-04-26T12:06:16.843Z,31.30
2019-04-26T12:08:51.935Z,29.90
2019-04-26T12:11:30.352Z,29.40
2019-04-26T12:13:55.336Z,28.60
2019-04-26T12:16:23.155Z,28.30
2019-04-26T12:18:52.455Z,28.20
2019-04-26T12:21:21.716Z,28.10
2019-04-26T12:23:51.293Z,28.10
2019-04-26T12:26:23.133Z,27.90
2019-04-26T12:28:52.524Z,27.70
2019-04-26T12:31:21.791Z,27.50
2019-04-26T12:33:51.091Z,26.80
2019-04-26T12:36:20.380Z,26.80
2019-04-26T12:38:49.738Z,26.60
2019-04-26T12:41:22.205Z,26.50
2019-04-26T12:43:50.359Z,26.70
2019-04-26T12:46:38.700Z,26.80
2019-04-26T12:49:08.070Z,26.90
2019-04-26T12:51:38.366Z,26.60
2019-04-26T12:54:09.801Z,26.10
2019-04-26T12:56:38.811Z,25.70
2019-04-26T12:59:08.159Z,25.70
2019-04-26T13:01:37.474Z,26.20
2019-04-26T13:04:07.613Z,26.90
2019-04-26T13:06:42.772Z,27.40
2019-04-26T13:09:15.718Z,27.80
2019-04-26T13:11:56.643Z,28.00
2019-04-26T13:14:48.162Z,28.30
2019-04-26T13:17:20.306Z,28.90
2019-04-26T13:19:53.984Z,29.30
2019-04-26T13:22:20.926Z,29.60
2019-04-26T13:24:50.266Z,29.80
2019-04-26T13:27:19.666Z,30.00
2019-04-26T13:30:01.340Z,30.10
2019-04-26T13:32:20.122Z,30.30
2019-04-26T13:34:49.611Z,30.00
2019-04-26T13:37:18.990Z,30.00
2019-04-26T13:39:51.236Z,30.00
2019-04-26T13:42:19.306Z,29.70
2019-04-26T13:44:56.573Z,29.50
2019-04-26T13:47:54.141Z,28.30
2019-04-26T13:50:28.270Z,27.90
2019-04-26T13:52:57.771Z,28.10
2019-04-26T13:55:29.467Z,28.20
2019-04-26T13:57:58.130Z,28.40
2019-04-26T14:00:30.711Z,28.40
2019-04-26T14:02:59.992Z,28.00
2019-04-26T14:05:29.483Z,27.60
2019-04-26T14:07:58.805Z,27.20
2019-04-26T14:10:28.105Z,26.80
2019-04-26T14:12:57.361Z,26.40
2019-04-26T14:15:26.783Z,26.10
2019-04-26T14:17:56.049Z,26.00
2019-04-26T14:20:26.703Z,25.90
2019-04-26T14:23:16.316Z,25.70
2019-04-26T14:26:07.328Z,25.70
2019-04-26T14:28:36.591Z,26.00
2019-04-26T14:31:05.961Z,26.30
2019-04-26T14:33:35.285Z,26.60
2019-04-26T14:36:17.129Z,26.60
2019-04-26T14:38:40.202Z,26.30
2019-04-26T14:41:06.751Z,26.20
2019-04-26T14:43:40.951Z,25.90
2019-04-26T14:46:10.497Z,25.50
2019-04-26T14:48:40.498Z,25.30
2019-04-26T14:51:12.386Z,25.30
2019-04-26T14:53:40.032Z,25.20
2019-04-26T14:56:09.313Z,25.10
2019-04-26T14:58:38.702Z,25.20
2019-04-26T15:01:10.377Z,25.40
2019-04-26T15:03:51.368Z,25.70
2019-04-26T15:06:23.788Z,25.70
2019-04-26T15:08:53.222Z,25.70
2019-04-26T15:11:23.036Z,25.70
2019-04-26T15:13:52.452Z,25.70
2019-04-26T15:16:22.764Z,25.60
2019-04-26T15:18:52.800Z,25.70
2019-04-26T15:21:22.816Z,25.70
2019-04-26T15:23:55.284Z,25.90
2019-04-26T15:26:29.551Z,25.90
2019-04-26T15:28:54.164Z,26.00
2019-04-26T15:31:24.961Z,26.00
2019-04-26T15:33:54.520Z,26.00
2019-04-26T15:36:23.789Z,26.50
2019-04-26T15:38:53.183Z,26.00
2019-04-26T15:41:47.010Z,26.00
2019-04-26T15:44:30.159Z,26.00
2019-04-26T15:47:05.825Z,26.10
2019-04-26T15:49:53.223Z,26.10
2019-04-26T15:52:22.553Z,26.00
2019-04-26T15:54:52.861Z,26.00
2019-04-26T15:57:24.479Z,26.00
2019-04-26T15:59:54.427Z,26.00
2019-04-26T16:02:26.271Z,26.20
2019-04-26T16:04:55.800Z,26.60
2019-04-26T16:07:28.895Z,26.70
2019-04-26T16:09:57.460Z,26.80
2019-04-26T16:12:27.307Z,26.90
2019-04-26T16:14:56.687Z,26.90
2019-04-26T16:17:26.033Z,27.00
2019-04-26T16:19:56.159Z,27.10
2019-04-26T16:22:30.240Z,27.20
2019-04-26T16:24:58.267Z,27.40
2019-04-26T16:27:32.280Z,27.50
2019-04-26T16:30:08.321Z,27.60
2019-04-26T16:33:00.066Z,27.80
2019-04-26T16:35:29.569Z,27.90
2019-04-26T16:38:06.645Z,28.00
2019-04-26T16:40:32.621Z,28.30
2019-04-26T16:43:02.201Z,28.50
2019-04-26T16:45:37.308Z,28.70
2019-04-26T16:48:04.378Z,28.90
2019-04-26T16:50:38.168Z,29.20
2019-04-26T16:53:04.779Z,29.40
2019-04-26T16:55:35.492Z,29.40
2019-04-26T16:58:05.056Z,29.70
2019-04-26T17:00:50.256Z,30.50
2019-04-26T17:03:08.054Z,30.20
2019-04-26T17:05:47.903Z,30.30
2019-04-26T17:08:10.191Z,30.50
2019-04-26T17:10:38.422Z,30.70
2019-04-26T17:13:07.742Z,31.00
2019-04-26T17:15:37.014Z,31.30
2019-04-26T17:18:06.389Z,31.70
2019-04-26T17:20:35.718Z,32.40
2019-04-26T17:23:33.421Z,33.00
2019-04-26T17:26:36.448Z,33.40
2019-04-26T17:29:04.930Z,34.10
2019-04-26T17:31:34.318Z,34.60
2019-04-26T17:34:05.276Z,35.00
2019-04-26T17:36:34.714Z,35.20
2019-04-26T17:39:05.731Z,35.30
2019-04-26T17:41:35.118Z,35.60
2019-04-26T17:44:10.500Z,36.00
2019-04-26T17:46:35.730Z,36.60
2019-04-26T17:49:05.101Z,36.80
2019-04-26T17:51:41.734Z,36.70
2019-04-26T17:54:21.232Z,36.80
2019-04-26T17:56:39.564Z,36.90
2019-04-26T17:59:09.234Z,37.00
2019-04-26T18:01:45.290Z,37.20
2019-04-26T18:04:11.110Z,37.40
2019-04-26T18:06:40.390Z,37.80
2019-04-26T18:09:18.547Z,38.00
2019-04-26T18:11:41.227Z,38.30
2019-04-26T18:14:20.860Z,38.00
2019-04-26T18:16:43.653Z,38.70
2019-04-26T18:19:34.765Z,39.90
2019-04-26T18:22:12.975Z,40.30
2019-04-26T18:24:43.390Z,40.50
2019-04-26T18:27:14.656Z,41.00
2019-04-26T18:29:44.140Z,41.50
2019-04-26T18:32:13.664Z,41.80
2019-04-26T18:34:43.244Z,42.10
2019-04-26T18:37:13.303Z,42.60
2019-04-26T18:39:43.194Z,42.80
2019-04-26T18:42:13.944Z,43.00
2019-04-26T18:44:47.979Z,43.00
2019-04-26T18:47:27.446Z,43.10
2019-04-26T18:49:58.130Z,43.20
2019-04-26T18:52:26.321Z,43.30
2019-04-26T18:55:12.958Z,43.80
2019-04-26T18:57:43.038Z,44.10
2019-04-26T19:00:26.476Z,44.30
2019-04-26T19:02:55.398Z,44.50
2019-04-26T19:05:29.712Z,44.60
2019-04-26T19:07:55.923Z,44.90
2019-04-26T19:10:28.947Z,45.10
2019-04-26T19:13:00.127Z,45.40
2019-04-26T19:15:54.220Z,45.60
2019-04-26T19:18:33.647Z,45.90
2019-04-26T19:21:08.010Z,46.00
2019-04-26T19:23:37.583Z,46.10
2019-04-26T19:26:09.506Z,46.30
2019-04-26T19:28:39.903Z,46.60
2019-04-26T19:31:09.544Z,46.60
2019-04-26T19:33:39.119Z,46.90
2019-04-26T19:36:08.619Z,47.10
2019-04-26T19:38:38.144Z,47.40
2019-04-26T19:41:07.691Z,47.50
2019-04-26T19:43:39.220Z,47.50
2019-04-26T19:46:31.644Z,47.80
2019-04-26T19:49:18.755Z,48.00
2019-04-26T19:52:22.404Z,48.30
2019-04-26T19:55:11.535Z,48.30
2019-04-26T19:57:58.484Z,48.20
2019-04-26T20:00:28.167Z,48.00
2019-04-26T20:02:57.702Z,48.10
2019-04-26T20:05:27.246Z,48.30
2019-04-26T20:07:58.544Z,48.70
2019-04-26T20:10:27.834Z,48.90
2019-04-26T20:12:57.301Z,49.00
2019-04-26T20:15:28.686Z,49.10
2019-04-26T20:17:59.992Z,49.20
2019-04-26T20:20:34.460Z,49.30
2019-04-26T20:23:05.783Z,49.20
2019-04-26T20:25:31.593Z,49.30
2019-04-26T20:28:03.099Z,49.40
2019-04-26T20:30:42.103Z,49.50
2019-04-26T20:33:12.202Z,49.60
2019-04-26T20:35:42.369Z,49.70
2019-04-26T20:38:12.083Z,49.90
2019-04-26T20:40:43.502Z,50.20
2019-04-26T20:43:23.220Z,50.10
2019-04-26T20:46:07.944Z,50.30
2019-04-26T20:48:14.961Z,50.30
2019-04-26T20:50:44.581Z,50.40
2019-04-26T20:53:14.196Z,50.40
2019-04-26T20:55:43.757Z,50.50
2019-04-26T20:58:13.329Z,50.60
2019-04-26T21:00:53.773Z,50.60
2019-04-26T21:03:23.137Z,50.60
2019-04-26T21:05:46.634Z,50.50
2019-04-26T21:08:19.562Z,50.60
2019-04-26T21:10:47.847Z,50.80
2019-04-26T21:13:17.440Z,50.90
2019-04-26T21:15:58.004Z,51.00
2019-04-26T21:18:18.101Z,50.90
2019-04-26T21:20:47.636Z,50.70
2019-04-26T21:23:17.114Z,50.80
2019-04-26T21:26:07.065Z,50.90
2019-04-26T21:28:56.937Z,50.90
2019-04-26T21:31:40.965Z,50.80
2019-04-26T21:34:15.536Z,51.00
2019-04-26T21:37:11.437Z,51.20
2019-04-26T21:40:08.712Z,51.30
2019-04-26T21:42:38.340Z,51.40
2019-04-26T21:45:08.160Z,51.60
2019-04-26T21:47:37.717Z,51.70
2019-04-26T21:50:07.628Z,51.80
2019-04-26T21:52:37.169Z,52.00
2019-04-26T21:55:06.891Z,52.00
2019-04-26T21:57:36.449Z,52.00
2019-04-26T22:00:09.160Z,52.10
2019-04-26T22:02:38.528Z,52.20
2019-04-26T22:05:11.599Z,52.20
2019-04-26T22:07:43.702Z,52.20
2019-04-26T22:10:32.923Z,52.30
2019-04-26T22:13:05.655Z,52.40
2019-04-26T22:16:03.654Z,52.40
2019-04-26T22:18:45.308Z,52.40
2019-04-26T22:21:28.862Z,52.50
2019-04-26T22:23:59.367Z,52.50
2019-04-26T22:26:28.867Z,52.60
2019-04-26T22:29:00.219Z,52.80
2019-04-26T22:31:29.523Z,52.90
2019-04-26T22:34:01.387Z,53.10
2019-04-26T22:36:30.884Z,53.20
2019-04-26T22:39:01.910Z,53.30
2019-04-26T22:41:33.836Z,53.40
2019-04-26T22:44:14.720Z,53.40
2019-04-26T22:47:14.037Z,53.40
2019-04-26T22:49:45.351Z,53.60
2019-04-26T22:52:16.466Z,53.80
2019-04-26T22:54:46.701Z,53.90
2019-04-26T22:57:16.663Z,54.00
2019-04-26T22:59:50.198Z,54.10
2019-04-26T23:02:18.586Z,54.10
2019-04-26T23:04:48.863Z,54.20
2019-04-26T23:07:23.211Z,54.30
2019-04-26T23:09:52.124Z,54.10
2019-04-26T23:12:39.828Z,54.30
2019-04-26T23:15:38.014Z,54.40
2019-04-26T23:18:26.391Z,54.50
2019-04-26T23:20:58.391Z,54.60
2019-04-26T23:23:27.918Z,54.70
2019-04-26T23:25:57.426Z,54.70
2019-04-26T23:28:27.724Z,54.70
2019-04-26T23:31:01.438Z,54.90
2019-04-26T23:33:29.314Z,55.10
2019-04-26T23:35:58.824Z,55.90
2019-04-26T23:38:28.382Z,55.30
2019-04-26T23:41:01.098Z,55.30
2019-04-26T23:43:29.094Z,55.30
2019-04-26T23:45:58.596Z,55.10
2019-04-26T23:48:28.151Z,55.20
2019-04-26T23:50:59.794Z,55.20
2019-04-26T23:53:28.622Z,55.30
2019-04-26T23:55:58.243Z,55.40
2019-04-26T23:58:27.717Z,55.50
